Time;durP1;ratioP1;P1;durP2;ratioP2;P2;SDS_P1;SDS_P2;PMS_P1;PMS_P2;Temp;Humidity;BMP_temperature;BMP_pressure;BME280_temperature;BME280_humidity;BME280_pressure;Samples;Min_cycle;Max_cycle;Signal;HPM_P1;HPM_P2
2021/07/20 00:00:42;;;;;;;4.70;4.22;;;20.20;98.50;;;;;;5049195;28;20696;-70
2021/07/20 00:03:10;;;;;;;5.25;4.88;;;20.20;98.50;;;;;;5049442;28;20192;-69
2021/07/20 00:05:43;;;;;;;5.30;4.80;;;20.20;98.50;;;;;;5049630;28;20238;-69
2021/07/20 00:08:11;;;;;;;8.57;4.78;;;20.20;98.50;;;;;;5049501;28;20179;-70
2021/07/20 00:10:38;;;;;;;5.22;4.82;;;20.20;98.50;;;;;;5049779;28;20214;-70
2021/07/20 00:13:06;;;;;;;6.55;4.55;;;20.20;98.50;;;;;;5047418;28;20186;-70
2021/07/20 00:15:33;;;;;;;4.97;4.60;;;20.20;98.50;;;;;;5049590;28;21036;-70
2021/07/20 00:18:04;;;;;;;4.78;4.47;;;20.10;98.50;;;;;;5047890;28;20552;-69
2021/07/20 00:20:29;;;;;;;5.07;4.75;;;20.10;98.50;;;;;;5048185;28;20215;-70
2021/07/20 00:22:55;;;;;;;4.60;4.32;;;20.10;98.50;;;;;;5049402;28;20203;-70
2021/07/20 00:25:21;;;;;;;4.78;4.38;;;20.10;98.50;;;;;;5049009;28;20253;-70
2021/07/20 00:27:47;;;;;;;4.97;4.75;;;20.10;98.50;;;;;;5047851;28;20202;-70
2021/07/20 00:30:14;;;;;;;4.70;4.35;;;20.10;98.50;;;;;;5048881;28;20836;-70
2021/07/20 00:32:40;;;;;;;5.07;4.72;;;20.10;98.50;;;;;;5047628;28;20183;-70
2021/07/20 00:35:08;;;;;;;4.97;4.63;;;20.10;98.50;;;;;;5047206;28;20262;-71
2021/07/20 00:37:34;;;;;;;5.72;5.20;;;20.10;98.50;;;;;;5046678;28;20179;-70
2021/07/20 00:40:00;;;;;;;4.50;4.20;;;20.10;98.50;;;;;;5047198;28;20310;-70
2021/07/20 00:42:26;;;;;;;9.68;4.43;;;20.10;98.50;;;;;;5049290;28;20645;-70
2021/07/20 00:44:51;;;;;;;5.25;4.85;;;20.10;98.50;;;;;;5048100;28;20195;-70
2021/07/20 00:47:17;;;;;;;4.75;4.22;;;20.10;98.50;;;;;;5048925;28;20259;-70
2021/07/20 00:49:44;;;;;;;5.88;5.47;;;20.00;98.50;;;;;;5048501;28;20222;-70
2021/07/20 00:52:10;;;;;;;4.85;4.65;;;20.00;98.50;;;;;;5076980;28;20208;-68
2021/07/20 00:54:37;;;;;;;5.00;4.70;;;20.00;98.50;;;;;;5049295;28;20180;-69
2021/07/20 00:57:03;;;;;;;4.95;4.45;;;20.00;98.50;;;;;;5051178;28;20187;-70
2021/07/20 00:59:29;;;;;;;4.60;4.40;;;19.90;98.50;;;;;;5044707;28;20210;-70
2021/07/20 01:01:55;;;;;;;6.10;5.00;;;19.90;98.50;;;;;;5047946;28;20184;-70
2021/07/20 01:04:22;;;;;;;5.22;4.78;;;19.80;98.50;;;;;;5048535;28;20188;-70
2021/07/20 01:06:49;;;;;;;5.45;4.95;;;19.80;98.50;;;;;;5044958;28;20282;-70
2021/07/20 01:09:15;;;;;;;5.05;4.60;;;19.80;98.50;;;;;;5047937;28;20200;-69
2021/07/20 01:11:42;;;;;;;4.55;4.05;;;19.80;98.50;;;;;;5046212;28;20187;-69
2021/07/20 01:14:08;;;;;;;5.13;4.75;;;19.80;98.50;;;;;;5048337;28;20273;-70
2021/07/20 01:16:36;;;;;;;4.75;4.35;;;19.70;98.50;;;;;;5046810;28;20192;-70
2021/07/20 01:19:06;;;;;;;5.57;4.80;;;19.70;98.50;;;;;;5048629;28;20614;-70
2021/07/20 01:21:34;;;;;;;5.55;5.05;;;19.70;98.50;;;;;;5045646;28;20249;-70
2021/07/20 01:24:17;;;;;;;5.18;4.80;;;19.60;98.50;;;;;;5047922;28;20245;-70
2021/07/20 01:26:45;;;;;;;6.38;4.60;;;19.60;98.50;;;;;;5048190;28;20292;-70
2021/07/20 01:29:12;;;;;;;4.80;4.50;;;19.60;98.50;;;;;;5045346;28;20191;-70
2021/07/20 01:31:41;;;;;;;5.63;4.82;;;19.60;98.50;;;;;;5047473;28;20180;-70
2021/07/20 01:34:11;;;;;;;5.05;4.55;;;19.60;98.50;;;;;;5047833;28;20187;-70
2021/07/20 01:36:40;;;;;;;5.40;5.00;;;19.60;98.50;;;;;;5047632;28;20214;-70
2021/07/20 01:39:09;;;;;;;5.13;4.82;;;19.60;98.50;;;;;;5079498;28;20183;-70
2021/07/20 01:41:36;;;;;;;7.00;5.45;;;19.60;98.50;;;;;;5045238;28;20183;-70
2021/07/20 01:44:05;;;;;;;5.90;4.78;;;19.50;98.50;;;;;;5046741;28;20267;-70
2021/07/20 01:46:33;;;;;;;5.05;4.75;;;19.50;98.50;;;;;;5047607;28;20188;-69
2021/07/20 01:49:01;;;;;;;5.15;4.80;;;19.50;98.50;;;;;;5046338;28;20616;-69
2021/07/20 01:51:27;;;;;;;5.25;4.80;;;19.40;98.50;;;;;;5044687;28;20191;-69
2021/07/20 01:53:54;;;;;;;7.07;5.10;;;19.40;98.50;;;;;;5047100;28;20207;-70
2021/07/20 01:56:21;;;;;;;5.22;4.53;;;19.40;98.50;;;;;;5047190;28;20180;-68
2021/07/20 01:58:47;;;;;;;4.93;4.60;;;19.40;98.50;;;;;;5044847;28;20856;-70
2021/07/20 02:01:17;;;;;;;5.43;5.10;;;19.40;98.50;;;;;;5044347;28;20215;-70
2021/07/20 02:09:14;;;;;;;4.72;4.43;;;19.50;98.50;;;;;;5046982;28;20191;-70
2021/07/20 02:11:41;;;;;;;6.32;4.85;;;19.50;98.50;;;;;;5047228;28;20194;-70
2021/07/20 02:14:11;;;;;;;4.57;4.38;;;19.60;98.50;;;;;;5045705;28;20677;-70
2021/07/20 02:16:43;;;;;;;4.70;4.40;;;19.60;98.50;;;;;;5072139;28;20199;-69
2021/07/20 02:19:41;;;;;;;5.65;5.15;;;19.60;98.50;;;;;;5045185;28;20735;-69
2021/07/20 02:22:08;;;;;;;5.72;5.15;;;19.60;98.50;;;;;;5002261;28;20625;-70
2021/07/20 02:24:36;;;;;;;5.28;4.78;;;19.60;98.50;;;;;;5003082;28;20666;-70
2021/07/20 02:27:05;;;;;;;6.05;5.53;;;19.70;98.50;;;;;;5008620;28;20181;-69
2021/07/20 02:29:32;;;;;;;5.78;4.95;;;19.60;98.50;;;;;;5005431;28;20185;-70
2021/07/20 02:32:01;;;;;;;4.97;4.68;;;19.60;98.50;;;;;;5004505;28;20204;-70
2021/07/20 02:34:29;;;;;;;5.30;4.90;;;19.60;98.50;;;;;;4987501;28;20185;-70
2021/07/20 02:36:57;;;;;;;5.78;5.32;;;19.50;98.50;;;;;;5003767;28;20564;-70
2021/07/20 02:39:24;;;;;;;6.32;4.72;;;19.50;98.50;;;;;;5004219;28;20636;-70
2021/07/20 02:41:52;;;;;;;5.40;4.72;;;19.50;98.50;;;;;;5003599;28;20611;-70
2021/07/20 02:44:19;;;;;;;5.60;5.13;;;19.50;98.50;;;;;;5003633;28;20231;-70
2021/07/20 02:46:45;;;;;;;11.93;5.45;;;19.40;98.50;;;;;;5004398;28;20773;-70
2021/07/20 02:49:15;;;;;;;5.75;5.05;;;19.40;98.50;;;;;;5004965;28;20200;-71
2021/07/20 02:51:44;;;;;;;5.70;4.82;;;19.40;98.50;;;;;;5003084;28;20201;-70
2021/07/20 02:54:11;;;;;;;6.25;5.65;;;19.30;98.50;;;;;;5004157;28;20729;-70
2021/07/20 02:56:39;;;;;;;5.40;5.00;;;19.30;98.50;;;;;;5003213;28;20185;-70
2021/07/20 02:59:06;;;;;;;6.88;6.20;;;19.30;98.50;;;;;;5044866;28;20213;-69
2021/07/20 03:01:37;;;;;;;6.78;5.75;;;19.30;98.50;;;;;;5045091;28;20187;-70
2021/07/20 03:04:03;;;;;;;5.65;5.13;;;19.30;98.50;;;;;;5044539;28;20604;-69
2021/07/20 03:06:30;;;;;;;8.05;6.50;;;19.30;98.50;;;;;;5046419;28;20184;-69
2021/07/20 03:08:59;;;;;;;7.38;6.40;;;19.30;98.50;;;;;;5046728;28;20183;-70
2021/07/20 03:11:30;;;;;;;7.07;6.45;;;19.30;98.50;;;;;;5080721;28;20226;-70
2021/07/20 03:14:01;;;;;;;7.07;5.90;;;19.30;98.40;;;;;;5049646;28;20564;-70
2021/07/20 03:16:28;;;;;;;7.38;6.35;;;19.30;98.50;;;;;;5049362;28;20207;-70
2021/07/20 03:18:55;;;;;;;8.80;5.70;;;19.30;98.50;;;;;;5041638;28;20842;-70
2021/07/20 03:21:22;;;;;;;8.88;7.28;;;19.40;98.50;;;;;;5047874;28;21201;-70
2021/07/20 03:23:50;;;;;;;7.10;6.40;;;19.40;98.30;;;;;;5050900;28;20171;-70
2021/07/20 03:26:16;;;;;;;8.02;7.07;;;19.40;98.40;;;;;;5049348;28;20760;-70
2021/07/20 03:28:44;;;;;;;6.65;6.05;;;19.50;98.30;;;;;;5050622;28;20186;-70
2021/07/20 03:31:10;;;;;;;6.78;6.03;;;19.50;98.20;;;;;;5048336;28;20187;-71
2021/07/20 03:33:38;;;;;;;9.20;6.65;;;19.50;98.10;;;;;;5049407;28;20264;-70
2021/07/20 03:36:06;;;;;;;8.50;6.85;;;19.50;98.10;;;;;;5081512;28;20272;-69
2021/07/20 03:38:32;;;;;;;14.32;6.80;;;19.50;97.90;;;;;;5049847;28;20765;-70
2021/07/20 03:40:58;;;;;;;7.82;6.93;;;19.60;97.80;;;;;;5050411;28;20222;-70
2021/07/20 03:43:26;;;;;;;8.65;7.68;;;19.60;97.70;;;;;;5049956;28;20177;-70
2021/07/20 03:45:52;;;;;;;9.68;7.55;;;19.60;97.70;;;;;;5050048;28;20266;-70
2021/07/20 03:48:20;;;;;;;9.38;7.45;;;19.60;97.50;;;;;;5047882;28;20183;-69
2021/07/20 03:50:49;;;;;;;13.45;7.70;;;19.70;97.70;;;;;;5047927;28;20245;-70
2021/07/20 03:53:15;;;;;;;9.73;7.60;;;19.70;97.50;;;;;;5049640;28;20321;-70
2021/07/20 03:55:49;;;;;;;8.95;7.45;;;19.70;97.60;;;;;;5049284;28;20776;-70
2021/07/20 03:58:17;;;;;;;10.38;7.95;;;19.70;97.50;;;;;;5047526;28;20198;-70
2021/07/20 04:00:55;;;;;;;10.55;7.95;;;19.70;97.10;;;;;;5046384;28;20219;-69
2021/07/20 04:03:21;;;;;;;11.65;7.72;;;19.70;97.40;;;;;;5042721;28;20179;-70
2021/07/20 04:05:49;;;;;;;12.98;7.15;;;19.70;97.60;;;;;;5049555;28;20184;-70
2021/07/20 04:08:18;;;;;;;9.90;7.68;;;19.70;97.30;;;;;;5049931;28;20187;-69
2021/07/20 04:10:46;;;;;;;10.02;8.50;;;19.70;97.10;;;;;;5048515;28;20191;-70
2021/07/20 04:13:13;;;;;;;9.85;8.05;;;19.70;97.00;;;;;;5048645;28;20684;-70
2021/07/20 04:15:49;;;;;;;11.98;8.27;;;19.70;97.40;;;;;;5048287;28;21013;-70
2021/07/20 04:18:16;;;;;;;10.68;7.97;;;19.70;97.10;;;;;;5048685;28;20226;-70
2021/07/20 04:20:43;;;;;;;9.52;7.70;;;19.70;96.70;;;;;;5046208;28;20211;-69
2021/07/20 04:23:11;;;;;;;10.95;8.40;;;19.70;96.70;;;;;;5041770;28;20188;-70
2021/07/20 04:25:38;;;;;;;13.40;7.63;;;19.80;96.70;;;;;;5045255;28;20176;-69
2021/07/20 04:28:05;;;;;;;11.20;7.95;;;19.80;96.60;;;;;;5046958;28;20184;-69
2021/07/20 04:30:34;;;;;;;10.15;8.30;;;19.80;96.30;;;;;;5039410;28;20277;-70
2021/07/20 04:33:00;;;;;;;15.20;7.88;;;19.80;96.50;;;;;;5049133;28;20852;-71
2021/07/20 04:35:26;;;;;;;9.55;8.35;;;19.80;96.40;;;;;;5049564;28;20271;-70
2021/07/20 04:37:54;;;;;;;10.82;8.20;;;19.90;96.10;;;;;;5048567;28;20180;-70
2021/07/20 04:40:20;;;;;;;11.95;9.02;;;19.90;96.00;;;;;;5047550;28;20571;-70
2021/07/20 04:42:47;;;;;;;13.13;8.70;;;19.90;96.00;;;;;;5048545;28;20183;-70
2021/07/20 04:45:13;;;;;;;10.13;8.75;;;19.90;96.00;;;;;;5047370;28;20179;-70
2021/07/20 04:47:40;;;;;;;10.30;8.27;;;20.00;96.20;;;;;;5047325;28;20195;-70
2021/07/20 04:50:12;;;;;;;13.00;8.00;;;20.00;96.20;;;;;;5047033;28;20206;-70
2021/07/20 04:52:39;;;;;;;11.07;8.88;;;20.00;95.40;;;;;;5045884;28;20306;-69
2021/07/20 04:55:07;;;;;;;13.50;7.93;;;20.10;95.70;;;;;;5049611;28;20691;-74
2021/07/20 04:57:35;;;;;;;8.57;7.63;;;20.10;95.40;;;;;;5045480;28;20270;-72
2021/07/20 05:00:04;;;;;;;10.73;8.63;;;20.10;95.40;;;;;;5048550;28;20215;-72
2021/07/20 05:02:31;;;;;;;11.75;8.65;;;20.10;95.50;;;;;;5048805;28;20745;-72
2021/07/20 05:04:57;;;;;;;10.77;8.60;;;20.10;94.90;;;;;;5044599;28;20268;-74
2021/07/20 05:07:24;;;;;;;11.45;8.52;;;20.10;94.90;;;;;;5048282;28;20230;-73
2021/07/20 05:09:52;;;;;;;17.23;9.15;;;20.20;95.00;;;;;;5046704;28;20188;-73
2021/07/20 05:12:18;;;;;;;10.55;8.93;;;20.20;94.70;;;;;;5042191;28;20235;-72
2021/07/20 05:14:44;;;;;;;11.75;8.77;;;20.30;94.60;;;;;;5048148;28;20199;-73
2021/07/20 05:17:10;;;;;;;14.23;7.55;;;20.30;94.60;;;;;;5047423;28;20184;-73
2021/07/20 05:19:39;;;;;;;12.13;9.52;;;20.30;94.50;;;;;;5046961;28;20241;-71
2021/07/20 05:22:06;;;;;;;13.32;9.40;;;20.40;94.10;;;;;;5047521;28;20180;-70
2021/07/20 05:24:33;;;;;;;10.85;8.38;;;20.40;94.30;;;;;;5044710;28;20290;-71
2021/07/20 05:26:59;;;;;;;14.27;8.73;;;20.50;93.80;;;;;;5038125;28;20185;-71
2021/07/20 05:29:26;;;;;;;13.02;9.25;;;20.50;93.70;;;;;;5042428;28;20883;-70
2021/07/20 05:31:54;;;;;;;11.82;8.55;;;20.60;93.30;;;;;;5044582;28;20547;-70
2021/07/20 05:34:20;;;;;;;12.68;9.57;;;20.70;93.60;;;;;;5042574;28;20180;-71
2021/07/20 05:36:46;;;;;;;13.50;8.35;;;20.70;93.50;;;;;;5047570;28;20331;-71
2021/07/20 05:39:13;;;;;;;8.85;7.80;;;20.80;93.10;;;;;;5047560;28;20186;-70
2021/07/20 05:41:40;;;;;;;12.30;8.63;;;20.90;92.90;;;;;;5046708;28;20210;-71
2021/07/20 05:44:10;;;;;;;12.00;9.10;;;20.90;92.40;;;;;;5046788;28;20183;-71
2021/07/20 05:46:37;;;;;;;10.43;8.25;;;21.00;92.50;;;;;;5046151;28;20583;-71
2021/07/20 05:49:02;;;;;;;10.73;8.65;;;21.00;91.50;;;;;;5045851;28;20191;-72
2021/07/20 05:51:29;;;;;;;13.63;9.30;;;21.10;92.00;;;;;;5036666;28;20221;-70
2021/07/20 05:53:55;;;;;;;11.25;9.50;;;21.10;91.60;;;;;;5046667;28;20249;-71
2021/07/20 05:56:26;;;;;;;11.57;9.23;;;21.20;91.90;;;;;;5049197;28;20414;-70
2021/07/20 05:58:52;;;;;;;14.57;9.93;;;21.20;91.60;;;;;;5051437;28;20248;-71
2021/07/20 06:01:18;;;;;;;13.20;9.18;;;21.30;91.70;;;;;;5052069;28;20258;-71
2021/07/20 06:03:46;;;;;;;12.35;8.98;;;21.30;91.10;;;;;;5059147;28;20261;-71
2021/07/20 06:06:12;;;;;;;12.60;8.20;;;21.30;91.30;;;;;;5050889;28;20658;-70
2021/07/20 06:08:38;;;;;;;13.75;9.52;;;21.30;90.90;;;;;;5055689;28;20578;-70
2021/07/20 06:11:05;;;;;;;13.88;9.43;;;21.30;91.30;;;;;;5052874;28;20203;-70
2021/07/20 06:13:35;;;;;;;9.65;8.00;;;21.30;91.00;;;;;;5044427;28;20183;-70
2021/07/20 06:16:02;;;;;;;15.98;9.27;;;21.40;91.00;;;;;;5050932;28;20191;-70
2021/07/20 06:18:29;;;;;;;12.75;8.95;;;21.40;90.90;;;;;;5048964;28;20188;-70
2021/07/20 06:21:01;;;;;;;11.23;8.85;;;21.50;91.70;;;;;;5052092;28;20711;-70
2021/07/20 06:23:34;;;;;;;11.52;8.40;;;21.50;90.70;;;;;;5051621;28;20215;-70
2021/07/20 06:26:00;;;;;;;10.70;8.48;;;21.60;90.70;;;;;;5052532;28;20236;-70
2021/07/20 06:28:27;;;;;;;11.00;8.25;;;21.70;90.80;;;;;;5054652;28;20179;-70
2021/07/20 06:30:53;;;;;;;10.68;8.35;;;21.70;91.00;;;;;;5053024;28;20282;-71
2021/07/20 06:33:20;;;;;;;9.23;8.20;;;21.80;90.70;;;;;;5055614;28;20186;-69
2021/07/20 06:35:47;;;;;;;9.75;8.07;;;21.90;90.60;;;;;;5054788;28;20280;-69
2021/07/20 06:38:18;;;;;;;10.18;7.60;;;21.90;90.60;;;;;;5054905;28;20176;-69
2021/07/20 06:40:48;;;;;;;10.95;7.97;;;21.90;90.20;;;;;;5054103;28;20681;-69
2021/07/20 06:43:14;;;;;;;7.75;7.03;;;21.80;89.90;;;;;;5056966;28;20585;-71
2021/07/20 06:45:43;;;;;;;8.45;7.53;;;21.90;90.60;;;;;;5053288;28;20574;-71
2021/07/20 06:48:14;;;;;;;8.57;7.10;;;21.90;90.60;;;;;;5056437;28;20600;-70
2021/07/20 06:50:41;;;;;;;7.30;6.40;;;21.90;90.00;;;;;;5052130;28;20194;-69
2021/07/20 06:53:08;;;;;;;7.07;6.38;;;21.90;90.40;;;;;;5052225;28;20268;-70
2021/07/20 06:55:37;;;;;;;10.55;6.63;;;22.00;90.40;;;;;;5053138;28;20696;-70
2021/07/20 06:58:06;;;;;;;7.65;6.63;;;22.10;89.20;;;;;;5051627;28;20683;-70
2021/07/20 07:00:32;;;;;;;6.50;5.95;;;22.30;89.20;;;;;;5051488;28;20216;-70
2021/07/20 07:03:01;;;;;;;8.40;6.07;;;22.50;89.20;;;;;;5055237;28;20183;-70
2021/07/20 07:05:30;;;;;;;8.73;6.63;;;22.60;88.50;;;;;;5054430;28;20858;-70
2021/07/20 07:07:57;;;;;;;8.52;6.32;;;22.70;88.30;;;;;;5051068;28;20189;-70
2021/07/20 07:10:24;;;;;;;8.10;6.07;;;22.60;87.90;;;;;;5052487;28;20274;-71
2021/07/20 07:12:53;;;;;;;6.93;6.20;;;22.60;87.60;;;;;;5054713;28;20179;-70
2021/07/20 07:15:20;;;;;;;8.48;7.28;;;22.70;87.80;;;;;;5051708;28;20198;-72
2021/07/20 07:17:50;;;;;;;7.30;6.57;;;22.80;87.80;;;;;;5055636;28;20581;-70
2021/07/20 07:20:20;;;;;;;6.30;5.70;;;22.80;87.50;;;;;;5053835;28;20993;-70
2021/07/20 07:22:47;;;;;;;6.55;5.95;;;22.90;87.80;;;;;;5051536;28;20226;-70
2021/07/20 07:25:15;;;;;;;8.27;6.53;;;23.00;87.30;;;;;;5048527;28;20370;-70
2021/07/20 07:27:46;;;;;;;6.53;5.82;;;23.00;87.10;;;;;;5046334;28;20191;-69
2021/07/20 07:30:13;;;;;;;6.32;5.70;;;23.10;87.10;;;;;;5047403;28;20222;-70
2021/07/20 07:32:39;;;;;;;5.35;4.95;;;23.10;86.10;;;;;;5046551;28;20290;-70
2021/07/20 07:35:06;;;;;;;6.50;5.45;;;23.20;85.80;;;;;;5043033;28;20317;-70
2021/07/20 07:37:34;;;;;;;6.35;5.80;;;23.20;85.80;;;;;;5045155;28;20242;-69
2021/07/20 07:40:04;;;;;;;6.60;6.00;;;23.30;85.80;;;;;;5044640;28;20600;-70
2021/07/20 07:42:32;;;;;;;6.65;5.75;;;23.30;85.50;;;;;;5044314;28;20732;-70
2021/07/20 07:44:59;;;;;;;5.70;5.28;;;23.40;85.40;;;;;;5042959;28;20209;-69
2021/07/20 07:47:26;;;;;;;5.43;5.03;;;23.50;85.30;;;;;;5041731;28;20259;-71
2021/07/20 07:49:52;;;;;;;6.18;5.47;;;23.40;84.80;;;;;;5042839;28;20191;-68
2021/07/20 07:52:19;;;;;;;5.32;4.82;;;23.50;84.90;;;;;;5043163;28;20183;-71
2021/07/20 07:54:46;;;;;;;5.35;4.93;;;23.50;84.30;;;;;;5043941;28;20234;-72
2021/07/20 07:57:15;;;;;;;5.60;5.10;;;23.60;84.50;;;;;;5036654;28;20259;-68
2021/07/20 07:59:41;;;;;;;5.53;4.93;;;23.70;83.60;;;;;;5048469;28;20222;-68
2021/07/20 08:02:11;;;;;;;7.32;5.13;;;23.70;83.60;;;;;;5047745;28;20188;-67
2021/07/20 08:04:42;;;;;;;5.53;5.03;;;23.90;83.80;;;;;;5048935;28;20226;-68
2021/07/20 08:07:09;;;;;;;5.35;4.78;;;24.10;83.80;;;;;;5049857;28;20191;-67
2021/07/20 08:09:36;;;;;;;5.13;4.75;;;24.30;83.20;;;;;;5049719;28;20261;-68
2021/07/20 08:12:03;;;;;;;5.22;4.78;;;24.40;83.30;;;;;;5047138;28;20195;-70
2021/07/20 08:14:29;;;;;;;5.72;4.78;;;24.60;82.90;;;;;;5046630;28;20187;-68
2021/07/20 08:16:59;;;;;;;5.03;4.53;;;24.60;81.10;;;;;;5045813;28;20190;-70
2021/07/20 08:19:27;;;;;;;5.32;4.97;;;24.70;81.70;;;;;;5047469;28;20303;-69
2021/07/20 08:21:59;;;;;;;5.55;4.90;;;24.70;81.40;;;;;;5046914;28;20183;-69
2021/07/20 08:24:26;;;;;;;5.20;4.80;;;24.60;81.40;;;;;;5050560;28;20815;-69
2021/07/20 08:26:59;;;;;;;5.28;4.93;;;24.60;81.60;;;;;;5046949;28;20172;-70
2021/07/20 08:29:31;;;;;;;5.65;5.15;;;24.60;82.00;;;;;;5048228;28;20206;-69
2021/07/20 08:32:07;;;;;;;6.03;5.50;;;24.70;82.30;;;;;;5047420;28;20578;-69
2021/07/20 08:34:35;;;;;;;6.03;5.38;;;24.80;81.70;;;;;;5049657;28;20189;-70
2021/07/20 08:37:02;;;;;;;5.25;4.85;;;24.80;80.60;;;;;;5048921;28;20176;-69
2021/07/20 08:39:30;;;;;;;6.90;6.10;;;24.70;80.70;;;;;;5043619;28;20247;-69
2021/07/20 08:42:35;;;;;;;4.82;4.55;;;24.80;81.20;;;;;;5046128;28;20241;-69
2021/07/20 08:45:37;;;;;;;5.82;5.30;;;25.00;81.50;;;;;;5045321;28;20200;-69
2021/07/20 08:48:19;;;;;;;4.95;4.57;;;25.00;80.40;;;;;;5026695;28;20258;-70
2021/07/20 08:50:59;;;;;;;7.43;5.32;;;25.00;80.10;;;;;;5026779;28;20211;-68
2021/07/20 08:53:39;;;;;;;4.90;4.47;;;24.90;80.10;;;;;;5023125;28;20235;-69
2021/07/20 08:56:06;;;;;;;5.38;5.03;;;25.00;80.60;;;;;;5024649;28;20192;-69
2021/07/20 08:58:55;;;;;;;6.95;4.80;;;25.10;79.60;;;;;;5026898;28;20210;-70
2021/07/20 09:01:31;;;;;;;4.82;4.43;;;25.00;79.60;;;;;;5026717;28;20220;-71
2021/07/20 09:04:02;;;;;;;5.03;4.72;;;25.00;79.50;;;;;;5024335;28;20194;-70
2021/07/20 09:06:47;;;;;;;4.88;4.57;;;24.90;78.60;;;;;;5008370;28;20192;-70
2021/07/20 09:09:14;;;;;;;5.70;5.30;;;24.90;78.90;;;;;;5017577;28;20227;-69
2021/07/20 09:11:41;;;;;;;4.45;4.18;;;24.90;79.50;;;;;;5003572;28;20195;-69
2021/07/20 09:14:25;;;;;;;5.32;4.85;;;24.90;79.70;;;;;;5026607;28;20678;-69
2021/07/20 09:16:55;;;;;;;5.72;4.80;;;24.90;79.80;;;;;;5026352;28;20790;-70
2021/07/20 09:19:42;;;;;;;5.85;5.30;;;25.00;79.10;;;;;;5026059;28;20262;-69
2021/07/20 09:22:20;;;;;;;6.43;4.45;;;25.00;78.70;;;;;;5026289;28;20215;-68
2021/07/20 09:24:51;;;;;;;5.28;4.85;;;25.00;78.60;;;;;;5048264;28;20273;-70
2021/07/20 09:27:27;;;;;;;5.18;4.78;;;25.00;78.90;;;;;;5049019;28;20229;-69
2021/07/20 09:29:54;;;;;;;5.10;4.80;;;25.10;79.00;;;;;;5048145;28;20665;-70
2021/07/20 09:32:43;;;;;;;5.00;4.72;;;25.10;79.10;;;;;;5048000;28;20183;-69
2021/07/20 09:35:32;;;;;;;5.78;5.28;;;25.20;79.00;;;;;;5048423;28;20191;-70
2021/07/20 09:38:00;;;;;;;5.75;5.10;;;25.30;78.90;;;;;;5048679;28;20183;-69
2021/07/20 09:40:37;;;;;;;5.57;5.20;;;25.40;79.10;;;;;;5046816;28;20215;-69
2021/07/20 09:43:32;;;;;;;6.63;4.43;;;25.60;77.50;;;;;;5048141;28;20175;-68
2021/07/20 09:46:04;;;;;;;5.43;5.03;;;25.60;76.30;;;;;;5047957;28;20557;-69
2021/07/20 09:48:42;;;;;;;5.28;4.90;;;25.60;76.60;;;;;;5048282;28;20175;-69
2021/07/20 09:51:39;;;;;;;5.65;5.20;;;25.60;77.00;;;;;;5045711;28;20179;-68
2021/07/20 09:54:19;;;;;;;5.43;5.03;;;25.60;77.10;;;;;;5047793;28;20617;-69
2021/07/20 09:57:07;;;;;;;5.57;5.18;;;25.80;77.10;;;;;;5037846;28;20732;-69
2021/07/20 09:59:41;;;;;;;5.38;4.97;;;26.00;76.90;;;;;;5040927;28;20199;-69
2021/07/20 10:02:17;;;;;;;6.28;5.25;;;26.20;76.80;;;;;;5065913;28;20260;-71
2021/07/20 10:04:47;;;;;;;5.13;4.82;;;26.50;75.60;;;;;;5056939;28;20238;-70
2021/07/20 10:07:29;;;;;;;5.82;5.43;;;26.70;74.10;;;;;;5063096;28;20305;-70
2021/07/20 10:10:07;;;;;;;4.95;4.65;;;26.70;74.20;;;;;;5066181;28;20193;-69
2021/07/20 10:12:50;;;;;;;5.30;4.82;;;26.90;73.20;;;;;;5041424;28;20249;-70
2021/07/20 10:15:21;;;;;;;5.05;4.55;;;27.00;73.50;;;;;;5065950;28;20225;-70
2021/07/20 10:18:03;;;;;;;5.70;4.95;;;27.30;73.40;;;;;;5066030;28;20198;-69
2021/07/20 10:20:37;;;;;;;5.22;4.82;;;27.70;72.20;;;;;;5052717;28;20226;-68
2021/07/20 10:23:17;;;;;;;5.63;5.10;;;28.10;71.80;;;;;;5049527;28;20652;-69
2021/07/20 10:25:47;;;;;;;4.85;4.53;;;28.40;70.30;;;;;;5060261;28;20265;-71
2021/07/20 10:28:28;;;;;;;4.90;4.57;;;28.50;70.30;;;;;;5056919;28;20186;-70
2021/07/20 10:31:08;;;;;;;5.47;5.10;;;28.70;69.80;;;;;;5066002;28;20247;-73
2021/07/20 10:33:43;;;;;;;4.97;4.65;;;29.20;69.60;;;;;;5052695;28;20183;-71
2021/07/20 10:36:18;;;;;;;4.68;4.28;;;29.80;68.90;;;;;;5054371;28;20183;-72
2021/07/20 10:38:57;;;;;;;5.20;4.90;;;30.50;67.00;;;;;;5047290;28;20186;-72
2021/07/20 10:41:41;;;;;;;4.32;3.92;;;31.00;65.80;;;;;;5049350;28;20769;-73
2021/07/20 10:44:10;;;;;;;4.80;4.50;;;31.90;64.00;;;;;;5048809;28;20179;-71
2021/07/20 10:46:36;;;;;;;5.88;5.30;;;32.30;63.10;;;;;;5044794;28;20212;-72
2021/07/20 10:49:40;;;;;;;5.32;5.03;;;32.50;62.30;;;;;;5043913;28;20677;-72
2021/07/20 10:52:18;;;;;;;4.90;4.60;;;32.30;61.30;;;;;;5035040;28;20273;-70
2021/07/20 10:54:51;;;;;;;5.32;4.97;;;32.00;63.50;;;;;;5026610;28;20187;-72
2021/07/20 10:57:24;;;;;;;5.25;4.85;;;32.10;62.10;;;;;;5022250;28;20192;-70
2021/07/20 11:00:07;;;;;;;5.55;5.15;;;32.20;63.30;;;;;;5031583;28;20794;-70
2021/07/20 11:03:06;;;;;;;5.63;5.20;;;32.60;62.00;;;;;;5009180;28;20244;-69
2021/07/20 11:05:34;;;;;;;5.93;5.60;;;33.20;61.20;;;;;;5026373;28;20190;-68
2021/07/20 11:08:03;;;;;;;6.03;5.57;;;33.90;61.10;;;;;;5035298;28;20654;-69
2021/07/20 11:10:42;;;;;;;5.80;5.50;;;34.30;59.70;;;;;;5032821;28;20648;-69
2021/07/20 11:13:13;;;;;;;6.05;5.70;;;34.60;59.40;;;;;;5023726;28;20202;-69
2021/07/20 11:15:40;;;;;;;5.53;5.15;;;34.60;58.50;;;;;;5041528;28;20238;-69
2021/07/20 11:18:14;;;;;;;5.55;5.18;;;34.90;58.70;;;;;;5023255;28;20290;-69
2021/07/20 11:20:44;;;;;;;5.80;5.28;;;35.20;58.20;;;;;;5022382;28;20215;-69
2021/07/20 11:23:11;;;;;;;6.07;5.68;;;35.80;59.90;;;;;;5028325;28;20207;-70
2021/07/20 11:25:41;;;;;;;6.15;5.70;;;36.30;58.50;;;;;;5019736;28;20224;-71
2021/07/20 11:28:07;;;;;;;5.70;5.40;;;36.40;57.80;;;;;;5023723;28;20268;-70
2021/07/20 11:30:37;;;;;;;5.22;5.03;;;36.40;56.70;;;;;;5040020;28;20503;-69
2021/07/20 11:33:11;;;;;;;5.88;5.47;;;35.60;56.80;;;;;;5043589;28;20193;-69
2021/07/20 11:35:40;;;;;;;6.63;5.15;;;34.70;56.90;;;;;;5051339;28;20265;-69
2021/07/20 11:38:14;;;;;;;5.63;5.30;;;33.90;58.60;;;;;;5048321;28;20179;-72
2021/07/20 11:41:09;;;;;;;5.47;5.07;;;33.50;59.90;;;;;;5045777;28;20238;-72
2021/07/20 11:43:46;;;;;;;6.05;5.65;;;33.80;58.70;;;;;;5043712;28;20676;-70
2021/07/20 11:46:16;;;;;;;6.57;6.07;;;34.50;59.90;;;;;;5051845;28;20464;-71
2021/07/20 11:49:01;;;;;;;7.25;6.63;;;34.90;59.50;;;;;;5051150;28;20579;-69
2021/07/20 11:51:36;;;;;;;6.55;6.00;;;34.70;57.60;;;;;;5044483;28;20183;-72
2021/07/20 11:54:09;;;;;;;6.20;5.80;;;34.50;58.80;;;;;;5046827;28;20190;-70
2021/07/20 11:56:58;;;;;;;6.13;5.63;;;34.80;59.50;;;;;;5045738;28;20256;-71
2021/07/20 11:59:42;;;;;;;5.22;5.03;;;35.30;56.10;;;;;;5048242;28;20222;-70
2021/07/20 12:02:14;;;;;;;6.32;5.95;;;35.80;58.10;;;;;;5043257;28;20187;-70
2021/07/20 12:05:14;;;;;;;6.18;5.82;;;36.30;56.20;;;;;;5048054;28;20715;-69
2021/07/20 12:08:00;;;;;;;6.03;5.63;;;36.50;54.70;;;;;;5036276;28;20171;-69
2021/07/20 12:10:46;;;;;;;5.65;5.35;;;36.60;54.80;;;;;;5048730;28;20186;-70
2021/07/20 12:13:14;;;;;;;5.40;5.00;;;36.80;54.50;;;;;;5047470;28;20206;-69
2021/07/20 12:15:41;;;;;;;6.10;5.65;;;37.20;56.00;;;;;;5047649;28;20826;-73
2021/07/20 12:18:07;;;;;;;6.70;6.25;;;37.40;55.50;;;;;;5047422;28;20187;-71
2021/07/20 12:20:33;;;;;;;6.45;6.13;;;37.20;54.20;;;;;;5047049;28;20214;-71
2021/07/20 12:23:00;;;;;;;7.20;6.60;;;36.90;55.60;;;;;;5047107;28;20213;-71
2021/07/20 12:25:26;;;;;;;6.95;6.55;;;36.90;56.60;;;;;;5037073;28;20183;-70
2021/07/20 12:27:55;;;;;;;6.80;6.40;;;36.90;56.40;;;;;;5049844;28;20175;-71
2021/07/20 12:30:24;;;;;;;6.05;5.68;;;36.70;57.20;;;;;;5049274;28;20871;-70
2021/07/20 12:32:50;;;;;;;6.30;5.85;;;36.70;54.50;;;;;;5048951;28;20198;-71
2021/07/20 12:35:19;;;;;;;5.82;5.53;;;36.70;54.80;;;;;;5046792;28;20209;-69
2021/07/20 12:38:06;;;;;;;5.53;5.22;;;36.60;55.80;;;;;;5049171;28;20245;-71
2021/07/20 12:40:34;;;;;;;5.85;5.45;;;36.60;53.20;;;;;;5046972;28;20218;-70
2021/07/20 12:43:21;;;;;;;5.40;5.03;;;36.70;55.90;;;;;;5038634;28;20183;-71
2021/07/20 12:45:47;;;;;;;6.13;5.63;;;37.00;53.00;;;;;;5045142;28;20616;-70
2021/07/20 12:48:25;;;;;;;5.93;5.40;;;37.20;53.90;;;;;;5048141;28;20182;-71
2021/07/20 12:50:52;;;;;;;5.82;5.43;;;37.30;53.40;;;;;;5047065;28;20191;-71
2021/07/20 12:53:20;;;;;;;5.78;5.25;;;37.30;54.40;;;;;;5049679;28;20286;-69
2021/07/20 12:55:47;;;;;;;5.60;5.30;;;37.70;53.40;;;;;;5047896;28;20201;-71
2021/07/20 12:58:17;;;;;;;5.07;4.78;;;38.10;53.30;;;;;;5045633;28;20179;-71
2021/07/20 13:00:44;;;;;;;7.63;5.40;;;38.50;53.90;;;;;;5047239;28;20678;-71
2021/07/20 13:03:10;;;;;;;5.63;5.32;;;39.00;53.60;;;;;;5046643;28;20768;-73
2021/07/20 13:05:41;;;;;;;5.97;5.50;;;39.40;53.40;;;;;;5046132;28;20198;-70
2021/07/20 13:08:07;;;;;;;7.10;6.50;;;39.60;51.60;;;;;;5048324;28;20397;-70